Blues — ZGAQ9 — position and weather

sailwx.info

Track history (hours):
 
Tides and Currents Weather Stations Pressure Air Temp Water Temp Dewpoint Dewpoint Depression Visibility Wind Speed Wind Dir Waves Ship Positions

Blues

Last reported at 2015-Mar-17 17:27 UTC. Time now 2015-Mar-30 10:40 UTC.
Position N 18°26' W 064°42'.
Warning: this ship's position is 12 days out of date.

Type: Sailing vessel. MMSI: 319031700.

Date/timePositionNaut miles runAvg speedWind from/ knotsBaromVisibWave heightAir tempDewpointWater temp
2015-Mar-17 17:27N 18°26' W 064°42'2 2.7
2015-Mar-17 16:31N 18°26' W 064°45'0 0.0
2015-Mar-17 15:33N 18°26' W 064°45'0 0.0
2015-Mar-17 14:28N 18°26' W 064°45'0 0.0
2015-Mar-17 11:33N 18°26' W 064°45'0 0.0
2015-Mar-17 10:30N 18°26' W 064°45'0 0.0
2015-Mar-17 09:33N 18°26' W 064°45'0 0.0
2015-Mar-17 08:33N 18°26' W 064°45'0 0.0
2015-Mar-17 07:33N 18°26' W 064°45'0 0.0
2015-Mar-17 06:25N 18°26' W 064°45'0 0.0
2015-Mar-17 05:25N 18°26' W 064°45'0 0.0
2015-Mar-17 04:31N 18°26' W 064°45'0 0.0
2015-Mar-17 03:31N 18°26' W 064°45'0 0.0
2015-Mar-17 02:31N 18°26' W 064°45'0 0.0
2015-Mar-17 01:31N 18°26' W 064°45'0 0.0
2015-Mar-17 00:31N 18°26' W 064°45'0 0.0
2015-Mar-16 23:25N 18°26' W 064°45'0 0.0
2015-Mar-16 22:31N 18°26' W 064°45'5 4.9
2015-Mar-16 21:32N 18°23' W 064°42'12 1.6
2015-Mar-16 14:15N 18°25' W 064°30'3 0.2
2015-Mar-15 19:26N 18°26' W 064°27'0 0.0
2015-Mar-13 17:26N 18°26' W 064°27'2 0.1
2015-Mar-12 17:19N 18°26' W 064°29'  
Track history (hours):
 
Tides and Currents Weather Stations Pressure Air Temp Water Temp Dewpoint Dewpoint Depression Visibility Wind Speed Wind Dir Waves Ship Positions

Blues

Last reported at 2015-Mar-17 17:27 UTC. Time now 2015-Mar-30 10:40 UTC.
Position N 18°26' W 064°42'.
Warning: this ship's position is 12 days out of date.

Type: Sailing vessel. MMSI: 319031700.

Date/timePositionNaut miles runAvg speedWind from/ knotsBaromVisibWave heightAir tempDewpointWater temp
2015-Mar-17 17:27N 18°26' W 064°42'2 2.7
2015-Mar-17 16:31N 18°26' W 064°45'0 0.0
2015-Mar-17 15:33N 18°26' W 064°45'0 0.0
2015-Mar-17 14:28N 18°26' W 064°45'0 0.0
2015-Mar-17 11:33N 18°26' W 064°45'0 0.0
2015-Mar-17 10:30N 18°26' W 064°45'0 0.0
2015-Mar-17 09:33N 18°26' W 064°45'0 0.0
2015-Mar-17 08:33N 18°26' W 064°45'0 0.0
2015-Mar-17 07:33N 18°26' W 064°45'0 0.0
2015-Mar-17 06:25N 18°26' W 064°45'0 0.0
2015-Mar-17 05:25N 18°26' W 064°45'0 0.0
2015-Mar-17 04:31N 18°26' W 064°45'0 0.0
2015-Mar-17 03:31N 18°26' W 064°45'0 0.0
2015-Mar-17 02:31N 18°26' W 064°45'0 0.0
2015-Mar-17 01:31N 18°26' W 064°45'0 0.0
2015-Mar-17 00:31N 18°26' W 064°45'0 0.0
2015-Mar-16 23:25N 18°26' W 064°45'0 0.0
2015-Mar-16 22:31N 18°26' W 064°45'5 4.9
2015-Mar-16 21:32N 18°23' W 064°42'12 1.6
2015-Mar-16 14:15N 18°25' W 064°30'3 0.2
2015-Mar-15 19:26N 18°26' W 064°27'0 0.0
2015-Mar-13 17:26N 18°26' W 064°27'2 0.1
2015-Mar-12 17:19N 18°26' W 064°29'  

Dump ship's entire track history